createdAt,value
2022-12-18T00:00:03.375Z,99.99
2022-12-18T00:01:03.362Z,99.99
2022-12-18T00:02:03.434Z,99.99
2022-12-18T00:03:03.444Z,99.99
2022-12-18T00:04:03.509Z,99.99
2022-12-18T00:05:03.313Z,99.99
2022-12-18T00:06:03.315Z,99.99
2022-12-18T00:07:03.301Z,99.99
2022-12-18T00:08:03.280Z,99.99
2022-12-18T00:09:04.263Z,99.99
2022-12-18T00:10:03.252Z,99.99
2022-12-18T00:11:03.248Z,99.99
2022-12-18T00:13:08.241Z,99.99
2022-12-18T00:14:04.209Z,99.99
2022-12-18T00:15:03.219Z,99.99
2022-12-18T00:16:03.206Z,99.99
2022-12-18T00:17:03.181Z,99.99
2022-12-18T00:18:03.164Z,99.99
2022-12-18T00:19:03.183Z,99.99
2022-12-18T00:20:03.126Z,99.99
2022-12-18T00:21:03.110Z,99.99
2022-12-18T00:22:03.116Z,99.99
2022-12-18T00:23:03.089Z,99.99
2022-12-18T00:24:03.085Z,99.99
2022-12-18T00:25:03.070Z,99.99
2022-12-18T00:26:03.057Z,99.99
2022-12-18T00:27:03.055Z,99.99
2022-12-18T00:28:03.026Z,99.99
2022-12-18T00:29:03.005Z,99.99
2022-12-18T00:30:03.004Z,99.99
2022-12-18T00:31:03.050Z,99.99
2022-12-18T00:32:03.040Z,99.99
2022-12-18T00:33:02.964Z,99.99
2022-12-18T00:34:02.965Z,99.99
2022-12-18T00:35:02.935Z,99.99
2022-12-18T00:36:02.935Z,99.99
2022-12-18T00:37:02.926Z,99.99
2022-12-18T00:38:02.902Z,99.99
2022-12-18T00:39:02.892Z,99.99
2022-12-18T00:40:02.881Z,99.99
2022-12-18T00:41:02.861Z,99.99
2022-12-18T00:42:02.870Z,99.99
2022-12-18T00:43:02.839Z,99.99
2022-12-18T00:44:02.829Z,99.99
2022-12-18T00:45:06.394Z,99.99
2022-12-18T00:46:03.876Z,99.99
2022-12-18T00:47:02.808Z,99.99
2022-12-18T00:48:02.811Z,99.99
2022-12-18T00:49:02.766Z,99.99
2022-12-18T00:50:02.757Z,99.99
2022-12-18T00:51:02.745Z,99.99
2022-12-18T00:52:02.755Z,99.99
2022-12-18T00:53:02.716Z,99.99
2022-12-18T00:54:02.707Z,99.99
2022-12-18T00:55:06.242Z,99.99
2022-12-18T00:56:02.688Z,99.99
2022-12-18T00:57:02.687Z,99.99
2022-12-18T00:58:02.666Z,99.99
2022-12-18T00:59:02.636Z,99.99
2022-12-18T01:00:02.636Z,99.99
2022-12-18T01:01:02.682Z,99.99
2022-12-18T01:02:02.697Z,99.99
2022-12-18T01:03:02.632Z,99.99
2022-12-18T01:04:02.582Z,99.99
2022-12-18T01:05:02.565Z,99.99
2022-12-18T01:06:02.568Z,99.99
2022-12-18T01:07:02.553Z,99.99
2022-12-18T01:08:02.535Z,99.99
2022-12-18T01:09:02.514Z,99.99
2022-12-18T01:10:02.515Z,99.99
2022-12-18T01:11:02.498Z,99.99
2022-12-18T01:12:02.506Z,99.99
2022-12-18T01:13:02.471Z,99.99
2022-12-18T01:14:02.460Z,99.99
2022-12-18T01:15:02.451Z,99.99
2022-12-18T01:16:02.492Z,99.99
2022-12-18T01:17:02.430Z,99.99
2022-12-18T01:18:02.422Z,99.99
2022-12-18T01:19:02.408Z,99.99
2022-12-18T01:20:02.391Z,99.99
2022-12-18T01:21:02.376Z,99.99
2022-12-18T01:22:02.390Z,99.99
2022-12-18T01:23:02.346Z,99.99
2022-12-18T01:24:02.358Z,99.99
2022-12-18T01:25:02.329Z,99.99
2022-12-18T01:26:02.315Z,99.99
2022-12-18T01:27:02.314Z,99.99
2022-12-18T01:28:02.294Z,99.99
2022-12-18T01:29:02.274Z,99.99
2022-12-18T01:30:02.264Z,99.99
2022-12-18T01:31:02.257Z,99.99
2022-12-18T01:32:02.286Z,99.99
2022-12-18T01:33:02.234Z,99.99
2022-12-18T01:34:02.212Z,99.99
2022-12-18T01:35:02.202Z,99.99
2022-12-18T01:36:02.191Z,99.99
2022-12-18T01:37:02.174Z,99.99
2022-12-18T01:38:02.188Z,99.99
2022-12-18T01:39:02.149Z,99.99
2022-12-18T01:40:02.143Z,99.99
2022-12-18T01:41:02.126Z,99.99
2022-12-18T01:42:02.114Z,99.99
2022-12-18T01:43:02.122Z,99.99
2022-12-18T01:44:02.088Z,99.99
2022-12-18T01:45:02.084Z,99.99
2022-12-18T01:46:02.129Z,99.99
2022-12-18T01:47:02.058Z,99.99
2022-12-18T01:48:02.061Z,99.99
2022-12-18T01:49:02.034Z,99.99
2022-12-18T01:50:02.016Z,99.99
2022-12-18T01:51:02.008Z,99.99
2022-12-18T01:52:01.989Z,99.99
2022-12-18T01:53:02.006Z,99.99
2022-12-18T01:54:01.972Z,99.99
2022-12-18T01:55:01.965Z,99.99
2022-12-18T01:56:01.936Z,99.99
2022-12-18T01:57:01.938Z,99.99
2022-12-18T01:58:01.934Z,99.99
2022-12-18T01:59:01.914Z,99.99
2022-12-18T02:00:01.901Z,99.99
2022-12-18T02:01:01.938Z,99.99
2022-12-18T02:02:02.043Z,99.99
2022-12-18T02:03:02.043Z,99.99
2022-12-18T02:04:01.845Z,99.99
2022-12-18T02:05:01.839Z,99.99
2022-12-18T02:06:01.834Z,99.99
2022-12-18T02:07:01.812Z,99.99
2022-12-18T02:08:01.815Z,99.99
2022-12-18T02:09:01.804Z,99.99
2022-12-18T02:10:01.771Z,99.99
2022-12-18T02:11:01.768Z,99.99
2022-12-18T02:12:01.749Z,99.99
2022-12-18T02:13:01.749Z,99.99
2022-12-18T02:14:01.732Z,99.99
2022-12-18T02:15:01.717Z,99.99
2022-12-18T02:16:01.696Z,99.99
2022-12-18T02:17:01.730Z,99.99
2022-12-18T02:18:01.690Z,99.99
2022-12-18T02:19:01.666Z,99.99
2022-12-18T02:20:01.725Z,99.99
2022-12-18T02:21:01.646Z,99.99
2022-12-18T02:22:01.626Z,99.99
2022-12-18T02:23:01.636Z,99.99
2022-12-18T02:24:01.603Z,99.99
2022-12-18T02:25:01.603Z,99.99
2022-12-18T02:26:01.575Z,99.99
2022-12-18T02:27:01.566Z,99.99
2022-12-18T02:28:01.572Z,99.99
2022-12-18T02:29:01.547Z,99.99
2022-12-18T02:30:01.538Z,99.99
2022-12-18T02:31:01.609Z,99.99
2022-12-18T02:32:01.509Z,99.99
2022-12-18T02:33:01.514Z,99.99
2022-12-18T02:34:01.481Z,99.99
2022-12-18T02:35:01.471Z,99.99
2022-12-18T02:36:01.466Z,99.99
2022-12-18T02:37:01.452Z,99.99
2022-12-18T02:38:01.461Z,99.99
2022-12-18T02:39:01.423Z,99.99
2022-12-18T02:40:01.411Z,99.99
2022-12-18T02:41:01.399Z,99.99
2022-12-18T02:42:01.380Z,99.99
2022-12-18T02:43:01.391Z,99.99
2022-12-18T02:44:01.357Z,99.99
2022-12-18T02:45:01.348Z,99.99
2022-12-18T02:46:01.368Z,99.99
2022-12-18T02:47:01.327Z,99.99
2022-12-18T02:48:01.331Z,99.99
2022-12-18T02:49:01.310Z,99.99
2022-12-18T02:50:01.299Z,99.99
2022-12-18T02:51:01.284Z,99.99
2022-12-18T02:52:01.268Z,99.99
2022-12-18T02:53:01.279Z,99.99
2022-12-18T02:54:01.234Z,99.99
2022-12-18T02:55:01.225Z,99.99
2022-12-18T02:56:01.214Z,99.99
2022-12-18T02:57:01.215Z,99.99
2022-12-18T02:58:01.204Z,99.99
2022-12-18T02:59:01.201Z,99.99
2022-12-18T03:00:01.163Z,99.99
2022-12-18T03:01:01.226Z,99.99
2022-12-18T03:02:01.336Z,99.99
2022-12-18T03:03:01.208Z,99.99
2022-12-18T03:04:01.123Z,99.99
2022-12-18T03:05:01.110Z,99.99
2022-12-18T03:06:01.093Z,99.99
2022-12-18T03:07:01.089Z,99.99
2022-12-18T03:08:01.091Z,99.99
2022-12-18T03:09:01.068Z,99.99
2022-12-18T03:10:01.049Z,99.99
2022-12-18T03:11:01.040Z,99.99
2022-12-18T03:12:01.027Z,99.99
2022-12-18T03:13:01.027Z,99.99
2022-12-18T03:14:00.998Z,99.99
2022-12-18T03:15:00.987Z,99.99
2022-12-18T03:16:00.978Z,99.99
2022-12-18T03:17:01.026Z,99.99
2022-12-18T03:18:00.969Z,99.99
2022-12-18T03:19:00.944Z,99.99
2022-12-18T03:20:00.929Z,99.99
2022-12-18T03:21:00.915Z,99.99
2022-12-18T03:22:00.906Z,99.99
2022-12-18T03:23:00.907Z,99.99
2022-12-18T03:24:00.885Z,99.99
2022-12-18T03:25:00.865Z,99.99
2022-12-18T03:26:05.884Z,99.99
2022-12-18T03:27:01.844Z,99.99
2022-12-18T03:28:00.844Z,99.99
2022-12-18T03:29:00.823Z,99.99
2022-12-18T03:30:00.864Z,99.99
2022-12-18T03:31:00.851Z,99.99
2022-12-18T03:32:00.787Z,99.99
2022-12-18T03:33:00.791Z,99.99
2022-12-18T03:34:00.766Z,99.99
2022-12-18T03:35:00.761Z,99.99
2022-12-18T03:36:00.732Z,99.99
2022-12-18T03:37:00.733Z,99.99
2022-12-18T03:38:00.727Z,99.99
2022-12-18T03:39:00.713Z,99.99
2022-12-18T03:40:00.698Z,99.99
2022-12-18T03:41:00.680Z,99.99
2022-12-18T03:42:00.669Z,99.99
2022-12-18T03:43:00.669Z,99.99
2022-12-18T03:44:00.639Z,99.99
2022-12-18T03:45:00.638Z,99.99
2022-12-18T03:46:00.664Z,99.99
2022-12-18T03:47:00.607Z,99.99
2022-12-18T03:48:00.606Z,99.99
2022-12-18T03:49:00.587Z,99.99
2022-12-18T03:50:00.575Z,99.99
2022-12-18T03:51:00.568Z,99.99
2022-12-18T03:52:00.545Z,99.99
2022-12-18T03:53:00.555Z,99.99
2022-12-18T03:54:00.527Z,99.99
2022-12-18T03:55:00.526Z,99.99
2022-12-18T03:56:00.504Z,99.99
2022-12-18T03:57:00.501Z,99.99
2022-12-18T03:58:00.501Z,99.99
2022-12-18T03:59:00.463Z,99.99
2022-12-18T04:00:00.462Z,99.99
2022-12-18T04:01:00.444Z,99.99
2022-12-18T04:02:00.518Z,99.99
2022-12-18T04:03:00.446Z,99.99
2022-12-18T04:04:00.466Z,99.99
2022-12-18T04:05:00.400Z,99.99
2022-12-18T04:06:00.385Z,99.99
2022-12-18T04:07:00.378Z,99.99
2022-12-18T04:08:00.379Z,99.99
2022-12-18T04:09:00.350Z,99.99
2022-12-18T04:10:00.330Z,99.99
2022-12-18T04:11:00.328Z,99.99
2022-12-18T04:12:00.319Z,99.99
2022-12-18T04:13:00.317Z,99.99
2022-12-18T04:14:01.948Z,99.99
2022-12-18T04:15:00.277Z,99.99
2022-12-18T04:16:00.297Z,99.99
2022-12-18T04:17:00.260Z,99.99
2022-12-18T04:18:00.247Z,99.99
2022-12-18T04:19:00.245Z,99.99
2022-12-18T04:20:00.219Z,99.99
2022-12-18T04:21:00.216Z,99.99
2022-12-18T04:22:00.197Z,99.99
2022-12-18T04:23:00.187Z,99.99
2022-12-18T04:24:00.193Z,99.99
2022-12-18T04:25:00.176Z,99.99
2022-12-18T04:26:00.143Z,99.99
2022-12-18T04:27:00.141Z,99.99
2022-12-18T04:28:00.125Z,99.99
2022-12-18T04:29:00.127Z,99.99
2022-12-18T04:30:00.122Z,99.99
2022-12-18T04:31:00.182Z,99.99
2022-12-18T04:32:00.079Z,99.99
2022-12-18T04:33:00.087Z,99.99
2022-12-18T04:34:00.085Z,99.99
2022-12-18T04:35:00.040Z,99.99
2022-12-18T04:36:00.031Z,99.99
2022-12-18T04:37:00.019Z,99.99
2022-12-18T04:38:00.006Z,99.99
2022-12-18T04:39:00.010Z,99.99
2022-12-18T04:39:59.988Z,99.99
2022-12-18T04:40:59.973Z,99.99
2022-12-18T04:41:59.958Z,99.99
2022-12-18T04:42:59.992Z,99.99
2022-12-18T04:43:59.949Z,99.99
2022-12-18T04:44:59.927Z,99.99
2022-12-18T04:45:59.941Z,99.99
2022-12-18T04:46:59.912Z,99.99
2022-12-18T04:47:59.888Z,99.99
2022-12-18T04:48:59.895Z,99.99
2022-12-18T04:49:59.865Z,99.99
2022-12-18T04:50:59.855Z,99.99
2022-12-18T04:51:59.842Z,99.99
2022-12-18T04:52:59.835Z,99.99
2022-12-18T04:53:59.832Z,99.99
2022-12-18T04:54:59.806Z,99.99
2022-12-18T04:55:59.794Z,99.99
2022-12-18T04:56:59.792Z,99.99
2022-12-18T04:57:59.772Z,99.99
2022-12-18T04:58:59.775Z,99.99
2022-12-18T04:59:59.805Z,99.99
2022-12-18T05:00:59.743Z,99.99
2022-12-18T05:01:59.856Z,99.99
2022-12-18T05:02:59.783Z,99.99
2022-12-18T05:03:59.760Z,99.99
2022-12-18T05:04:59.691Z,99.99
2022-12-18T05:05:59.678Z,99.99
2022-12-18T05:06:59.670Z,99.99
2022-12-18T05:07:59.658Z,99.99
2022-12-18T05:08:59.660Z,99.99
2022-12-18T05:09:59.632Z,99.99
2022-12-18T05:10:59.628Z,99.99
2022-12-18T05:11:59.609Z,99.99
2022-12-18T05:13:00.975Z,99.99
2022-12-18T05:13:59.597Z,99.99
2022-12-18T05:14:59.575Z,99.99
2022-12-18T05:15:59.579Z,99.99
2022-12-18T05:17:01.264Z,99.99
2022-12-18T05:17:59.541Z,99.99
2022-12-18T05:18:59.543Z,99.99
2022-12-18T05:19:59.512Z,99.99
2022-12-18T05:20:59.508Z,99.99
2022-12-18T05:21:59.500Z,99.99
2022-12-18T05:22:59.498Z,99.99
2022-12-18T05:23:59.524Z,99.99
2022-12-18T05:24:59.463Z,99.99
2022-12-18T05:25:59.442Z,99.99
2022-12-18T05:26:59.449Z,99.99
2022-12-18T05:27:59.421Z,99.99
2022-12-18T05:28:59.422Z,99.99
2022-12-18T05:29:59.391Z,99.99
2022-12-18T05:30:59.445Z,99.99
2022-12-18T05:31:59.382Z,99.99
2022-12-18T05:32:59.362Z,99.99
2022-12-18T05:33:59.371Z,99.99
2022-12-18T05:34:59.382Z,99.99
2022-12-18T05:35:59.329Z,99.99
2022-12-18T05:36:59.319Z,99.99
2022-12-18T05:37:59.310Z,99.99
2022-12-18T05:38:59.312Z,99.99
2022-12-18T05:39:59.279Z,99.99
2022-12-18T05:40:59.278Z,99.99
2022-12-18T05:41:59.259Z,99.99
2022-12-18T05:42:59.248Z,99.99
2022-12-18T05:43:59.246Z,99.99
2022-12-18T05:44:59.226Z,99.99
2022-12-18T05:45:59.213Z,99.99
2022-12-18T05:46:59.309Z,99.99
2022-12-18T05:47:59.184Z,99.99
2022-12-18T05:48:59.185Z,99.99
2022-12-18T05:49:59.164Z,99.99
2022-12-18T05:50:59.158Z,99.99
2022-12-18T05:51:59.135Z,99.99
2022-12-18T05:52:59.127Z,99.99
2022-12-18T05:53:59.124Z,99.99
2022-12-18T05:54:59.117Z,99.99
2022-12-18T05:55:59.091Z,99.99
2022-12-18T05:57:10.533Z,99.99
2022-12-18T05:58:00.086Z,99.99
2022-12-18T05:58:59.063Z,99.99
2022-12-18T05:59:59.044Z,99.99
2022-12-18T06:00:59.032Z,99.99
2022-12-18T06:01:59.096Z,99.99
2022-12-18T06:02:59.071Z,99.99
2022-12-18T06:03:59.074Z,99.99
2022-12-18T06:04:58.979Z,99.99
2022-12-18T06:05:58.979Z,99.99
2022-12-18T06:06:58.968Z,99.99
2022-12-18T06:07:58.949Z,99.99
2022-12-18T06:08:58.949Z,99.99
2022-12-18T06:09:58.936Z,99.99
2022-12-18T06:10:58.909Z,99.99
2022-12-18T06:11:58.908Z,99.99
2022-12-18T06:12:58.887Z,99.99
2022-12-18T06:14:00.297Z,99.99
2022-12-18T06:14:58.868Z,99.99
2022-12-18T06:15:58.895Z,99.99
2022-12-18T06:16:58.965Z,99.99
2022-12-18T06:17:58.836Z,99.99
2022-12-18T06:18:58.847Z,99.99
2022-12-18T06:19:58.825Z,99.99
2022-12-18T06:20:58.797Z,99.99
2022-12-18T06:21:58.793Z,99.99
2022-12-18T06:22:58.774Z,99.99
2022-12-18T06:23:58.785Z,99.56
2022-12-18T06:24:58.764Z,99.40
2022-12-18T06:25:58.753Z,99.40
2022-12-18T06:26:58.745Z,99.61
2022-12-18T06:27:58.723Z,99.82
2022-12-18T06:28:58.711Z,99.99
2022-12-18T06:29:58.692Z,99.99
2022-12-18T06:30:58.709Z,99.99
2022-12-18T06:31:58.784Z,99.99
2022-12-18T06:32:58.652Z,99.99
2022-12-18T06:33:58.660Z,99.99
2022-12-18T06:34:58.629Z,99.93
2022-12-18T06:36:01.093Z,99.76
2022-12-18T06:36:58.613Z,99.33
2022-12-18T06:37:58.601Z,98.84
2022-12-18T06:38:58.608Z,98.52
2022-12-18T06:39:58.577Z,98.57
2022-12-18T06:40:58.567Z,99.21
2022-12-18T06:41:58.551Z,99.99
2022-12-18T06:42:58.554Z,99.99
2022-12-18T06:44:00.093Z,99.99
2022-12-18T06:44:58.506Z,99.99
2022-12-18T06:45:58.535Z,99.99
2022-12-18T06:46:58.486Z,99.99
2022-12-18T06:47:58.483Z,99.99
2022-12-18T06:48:58.475Z,99.99
2022-12-18T06:49:58.454Z,99.99
2022-12-18T06:50:58.456Z,99.99
2022-12-18T06:51:58.433Z,99.99
2022-12-18T06:52:58.414Z,99.99
2022-12-18T06:53:58.425Z,99.99
2022-12-18T06:54:58.392Z,99.99
2022-12-18T06:55:58.392Z,99.99
2022-12-18T06:56:58.372Z,99.99
2022-12-18T06:57:58.361Z,99.99
2022-12-18T06:58:58.360Z,99.99
2022-12-18T06:59:58.340Z,99.99
2022-12-18T07:00:58.355Z,99.99
2022-12-18T07:01:58.400Z,99.99
2022-12-18T07:02:58.320Z,99.99
2022-12-18T07:03:58.302Z,99.99
2022-12-18T07:04:58.269Z,99.99
2022-12-18T07:05:58.270Z,99.99
2022-12-18T07:06:58.248Z,99.99
2022-12-18T07:07:58.239Z,99.99
2022-12-18T07:08:58.238Z,99.99
2022-12-18T07:09:58.221Z,99.99
2022-12-18T07:10:58.205Z,99.99
2022-12-18T07:11:58.198Z,99.99
2022-12-18T07:12:58.186Z,99.99
2022-12-18T07:13:58.189Z,99.99
2022-12-18T07:14:58.157Z,99.99
2022-12-18T07:15:58.168Z,99.99
2022-12-18T07:16:58.233Z,99.99
2022-12-18T07:17:58.126Z,99.99
2022-12-18T07:18:58.124Z,99.99
2022-12-18T07:19:58.108Z,99.99
2022-12-18T07:20:58.085Z,99.99
2022-12-18T07:21:58.074Z,99.99
2022-12-18T07:22:58.067Z,99.99
2022-12-18T07:23:58.074Z,99.99
2022-12-18T07:24:58.039Z,99.99
2022-12-18T07:25:58.032Z,99.99
2022-12-18T07:26:58.014Z,99.99
2022-12-18T07:27:58.012Z,99.99
2022-12-18T07:28:58.003Z,99.99
2022-12-18T07:29:57.984Z,99.99
2022-12-18T07:30:57.967Z,99.99
2022-12-18T07:31:58.007Z,99.99
2022-12-18T07:32:57.940Z,99.99
2022-12-18T07:33:57.937Z,99.99
2022-12-18T07:34:57.940Z,99.88
2022-12-18T07:35:57.919Z,99.67
2022-12-18T07:36:57.901Z,99.46
2022-12-18T07:37:57.899Z,99.35
2022-12-18T07:38:57.876Z,99.07
2022-12-18T07:39:57.884Z,99.18
2022-12-18T07:40:57.856Z,99.61
2022-12-18T07:41:57.845Z,99.71
2022-12-18T07:42:57.827Z,99.61
2022-12-18T07:43:57.823Z,99.99
2022-12-18T07:44:57.815Z,99.99
2022-12-18T07:45:57.848Z,99.99
2022-12-18T07:46:57.788Z,99.99
2022-12-18T07:47:57.780Z,99.99
2022-12-18T07:48:57.760Z,99.99
2022-12-18T07:49:57.765Z,99.99
2022-12-18T07:50:57.735Z,99.99
2022-12-18T07:51:57.744Z,99.99
2022-12-18T07:52:57.715Z,99.99
2022-12-18T07:53:57.703Z,99.99
2022-12-18T07:54:57.700Z,99.99
2022-12-18T07:56:25.445Z,99.99
2022-12-18T07:56:58.661Z,99.99
2022-12-18T07:58:01.013Z,99.99
2022-12-18T07:58:57.650Z,99.99
2022-12-18T07:59:57.651Z,99.99
2022-12-18T08:00:57.652Z,99.99
2022-12-18T08:01:57.767Z,99.99
2022-12-18T08:02:57.690Z,99.99
2022-12-18T08:03:57.590Z,99.99
2022-12-18T08:04:57.589Z,99.99
2022-12-18T08:05:57.569Z,99.99
2022-12-18T08:06:57.548Z,99.99
2022-12-18T08:07:57.568Z,99.99
2022-12-18T08:08:57.530Z,99.99
2022-12-18T08:09:57.531Z,99.99
2022-12-18T08:10:57.501Z,99.99
2022-12-18T08:11:57.486Z,99.99
2022-12-18T08:13:01.498Z,99.99
2022-12-18T08:13:58.478Z,99.99
2022-12-18T08:14:57.466Z,99.99
2022-12-18T08:15:57.446Z,99.99
2022-12-18T08:16:57.481Z,99.99
2022-12-18T08:17:57.424Z,99.99
2022-12-18T08:18:57.407Z,99.99
2022-12-18T08:19:57.413Z,99.99
2022-12-18T08:20:57.393Z,99.99
2022-12-18T08:21:57.380Z,99.99
2022-12-18T08:22:57.362Z,99.99
2022-12-18T08:23:57.352Z,99.99
2022-12-18T08:24:57.346Z,99.99
2022-12-18T08:25:57.324Z,99.99
2022-12-18T08:27:21.209Z,99.99
2022-12-18T08:27:58.301Z,99.99
2022-12-18T08:28:57.291Z,99.99
2022-12-18T08:29:57.305Z,99.99
2022-12-18T08:30:57.333Z,99.93
2022-12-18T08:31:57.278Z,99.62
2022-12-18T08:32:57.238Z,99.83
2022-12-18T08:33:57.259Z,99.99
2022-12-18T08:34:57.236Z,99.99
2022-12-18T08:35:57.226Z,99.99
2022-12-18T08:36:57.193Z,99.99
2022-12-18T08:37:57.181Z,99.79
2022-12-18T08:38:57.160Z,99.57
2022-12-18T08:39:57.167Z,99.36
2022-12-18T08:40:57.140Z,99.46
2022-12-18T08:41:57.128Z,99.46
2022-12-18T08:42:57.149Z,99.36
2022-12-18T08:43:57.103Z,99.36
2022-12-18T08:44:57.105Z,99.25
2022-12-18T08:45:57.136Z,99.10
2022-12-18T08:46:57.066Z,99.10
2022-12-18T08:47:57.056Z,98.99
2022-12-18T08:48:57.040Z,98.89
2022-12-18T08:49:57.053Z,98.78
2022-12-18T08:50:57.016Z,98.57
2022-12-18T08:51:57.006Z,98.36
2022-12-18T08:52:56.993Z,98.14
2022-12-18T08:53:56.979Z,98.03
2022-12-18T08:54:56.982Z,98.03
2022-12-18T08:55:56.958Z,98.03
2022-12-18T08:56:56.941Z,98.14
2022-12-18T08:57:56.931Z,98.25
2022-12-18T08:58:56.920Z,98.25
2022-12-18T08:59:56.921Z,98.14
2022-12-18T09:00:56.918Z,98.25
2022-12-18T09:01:56.992Z,98.25
2022-12-18T09:02:56.997Z,98.25
2022-12-18T09:03:56.862Z,98.36
2022-12-18T09:04:57.710Z,98.46
2022-12-18T09:05:56.838Z,98.36
2022-12-18T09:06:56.847Z,98.14
2022-12-18T09:07:56.810Z,98.14
2022-12-18T09:08:56.798Z,98.25
2022-12-18T09:09:56.808Z,98.36
2022-12-18T09:10:56.767Z,98.25
2022-12-18T09:11:56.766Z,98.25
2022-12-18T09:12:56.756Z,98.32
2022-12-18T09:13:56.735Z,98.32
2022-12-18T09:14:56.720Z,98.32
2022-12-18T09:15:56.728Z,98.21
2022-12-18T09:16:56.787Z,98.21
2022-12-18T09:17:56.977Z,98.16
2022-12-18T09:18:56.687Z,98.05
2022-12-18T09:19:56.674Z,97.95
2022-12-18T09:20:56.663Z,97.74
2022-12-18T09:21:56.654Z,97.85
2022-12-18T09:22:56.690Z,97.91
2022-12-18T09:23:56.612Z,97.91
2022-12-18T09:24:56.601Z,97.59
2022-12-18T09:25:56.604Z,97.48
2022-12-18T09:26:58.059Z,97.38
2022-12-18T09:27:56.572Z,97.16
2022-12-18T09:28:56.552Z,97.22
2022-12-18T09:29:56.543Z,97.33
2022-12-18T09:30:56.582Z,97.33
2022-12-18T09:31:56.518Z,97.54
2022-12-18T09:32:56.500Z,97.71
2022-12-18T09:33:56.496Z,97.61
2022-12-18T09:34:56.478Z,97.50
2022-12-18T09:35:56.498Z,97.45
2022-12-18T09:36:56.449Z,97.14
2022-12-18T09:37:56.448Z,97.03
2022-12-18T09:38:56.427Z,96.72
2022-12-18T09:39:56.419Z,96.67
2022-12-18T09:40:56.416Z,96.46
2022-12-18T09:41:56.396Z,96.14
2022-12-18T09:42:56.378Z,96.35
2022-12-18T09:43:56.375Z,96.62
2022-12-18T09:44:56.407Z,96.52
2022-12-18T09:45:56.391Z,96.31
2022-12-18T09:46:56.335Z,95.84
2022-12-18T09:47:56.327Z,95.73
2022-12-18T09:48:56.304Z,95.84
2022-12-18T09:49:56.293Z,96.16
2022-12-18T09:50:56.301Z,96.12
2022-12-18T09:51:56.273Z,96.01
2022-12-18T09:52:56.253Z,95.90
2022-12-18T09:53:56.261Z,95.65
2022-12-18T09:54:56.233Z,95.23
2022-12-18T09:55:56.240Z,95.12
2022-12-18T09:56:56.202Z,95.07
2022-12-18T09:57:56.202Z,95.18
2022-12-18T09:58:56.310Z,95.29
2022-12-18T09:59:56.182Z,95.44
2022-12-18T10:00:56.169Z,95.54
2022-12-18T10:01:56.239Z,95.71
2022-12-18T10:02:56.220Z,95.82
2022-12-18T10:03:56.196Z,95.71
2022-12-18T10:04:56.108Z,95.71
2022-12-18T10:05:56.117Z,95.92
2022-12-18T10:06:56.089Z,95.88
2022-12-18T10:07:56.075Z,95.88
2022-12-18T10:08:56.058Z,95.73
2022-12-18T10:09:56.061Z,95.73
2022-12-18T10:10:56.057Z,95.62
2022-12-18T10:11:56.021Z,95.58
2022-12-18T10:13:00.969Z,95.16
2022-12-18T10:13:57.002Z,95.16
2022-12-18T10:14:55.988Z,95.06
2022-12-18T10:15:56.015Z,95.06
2022-12-18T10:16:55.962Z,95.26
2022-12-18T10:17:55.946Z,95.48
2022-12-18T10:18:55.942Z,95.75
2022-12-18T10:19:55.922Z,95.86
2022-12-18T10:20:55.924Z,95.81
2022-12-18T10:21:55.894Z,95.18
2022-12-18T10:22:55.885Z,95.29
2022-12-18T10:23:55.873Z,94.71
2022-12-18T10:24:55.866Z,94.29
2022-12-18T10:25:55.870Z,94.61
2022-12-18T10:26:55.833Z,94.29
2022-12-18T10:27:55.820Z,93.34
2022-12-18T10:28:58.534Z,93.62
2022-12-18T10:29:56.807Z,93.30
2022-12-18T10:30:55.835Z,92.88
2022-12-18T10:31:55.800Z,93.19
2022-12-18T10:32:55.759Z,93.41
2022-12-18T10:33:55.742Z,93.73
2022-12-18T10:35:00.117Z,94.04
2022-12-18T10:35:56.738Z,93.09
2022-12-18T10:36:55.709Z,92.99
2022-12-18T10:37:55.723Z,92.77
2022-12-18T10:38:55.679Z,92.52
2022-12-18T10:39:55.669Z,92.10
2022-12-18T10:40:55.675Z,92.21
2022-12-18T10:41:55.647Z,92.52
2022-12-18T10:42:55.638Z,92.84
2022-12-18T10:43:55.618Z,92.31
2022-12-18T10:44:55.635Z,92.27
2022-12-18T10:45:55.667Z,91.78
2022-12-18T10:46:55.617Z,91.99
2022-12-18T10:47:55.566Z,92.52
2022-12-18T10:48:55.566Z,93.01
2022-12-18T10:49:55.543Z,93.32
2022-12-18T10:51:13.016Z,93.01
2022-12-18T10:51:56.543Z,92.69
2022-12-18T10:52:55.511Z,92.27
2022-12-18T10:53:55.485Z,92.38
2022-12-18T10:54:55.479Z,92.69
2022-12-18T10:55:55.484Z,92.58
2022-12-18T10:56:55.462Z,92.69
2022-12-18T10:57:55.476Z,92.69
2022-12-18T10:58:55.432Z,93.11
2022-12-18T10:59:55.412Z,93.38
2022-12-18T11:00:55.434Z,93.60
2022-12-18T11:01:55.510Z,93.13
2022-12-18T11:02:55.636Z,93.03
2022-12-18T11:04:01.605Z,92.50
2022-12-18T11:04:56.357Z,92.19
2022-12-18T11:05:55.352Z,91.77
2022-12-18T11:06:55.331Z,92.08
2022-12-18T11:07:55.311Z,92.29
2022-12-18T11:08:55.312Z,92.40
2022-12-18T11:09:55.290Z,92.71
2022-12-18T11:10:55.288Z,92.71
2022-12-18T11:12:02.767Z,92.29
2022-12-18T11:12:55.256Z,91.97
2022-12-18T11:14:02.740Z,91.77
2022-12-18T11:15:02.731Z,92.29
2022-12-18T11:15:55.254Z,92.29
2022-12-18T11:17:24.430Z,92.08
2022-12-18T11:17:56.189Z,92.08
2022-12-18T11:18:55.179Z,91.35
2022-12-18T11:19:55.168Z,91.41
2022-12-18T11:20:58.537Z,91.72
2022-12-18T11:21:55.156Z,92.77
2022-12-18T11:22:55.146Z,91.58
2022-12-18T11:23:55.177Z,91.58
2022-12-18T11:25:29.677Z,92.52
2022-12-18T11:25:56.107Z,91.96
2022-12-18T11:26:59.668Z,91.22
2022-12-18T11:27:56.065Z,91.49
2022-12-18T11:28:55.057Z,92.23
2022-12-18T11:29:55.057Z,92.19
2022-12-18T11:30:55.074Z,91.87
2022-12-18T11:31:55.027Z,90.09
2022-12-18T11:32:55.007Z,90.40
2022-12-18T11:34:26.792Z,91.52
2022-12-18T11:34:59.012Z,91.94
2022-12-18T11:35:54.963Z,89.46
2022-12-18T11:36:54.973Z,89.67
2022-12-18T11:37:54.946Z,89.98
2022-12-18T11:38:54.931Z,90.30
2022-12-18T11:39:54.913Z,89.87
2022-12-18T11:40:54.911Z,89.46
2022-12-18T11:41:54.905Z,90.02
2022-12-18T11:42:54.893Z,90.02
2022-12-18T11:43:54.876Z,90.23
2022-12-18T11:44:54.854Z,90.55
2022-12-18T11:45:54.844Z,91.60
2022-12-18T11:46:54.928Z,91.97
2022-12-18T11:47:54.820Z,92.08
2022-12-18T11:48:54.832Z,92.29
2022-12-18T11:49:54.787Z,92.25
2022-12-18T11:50:54.794Z,92.46
2022-12-18T11:51:54.790Z,91.62
2022-12-18T11:52:59.243Z,90.15
2022-12-18T11:53:55.741Z,90.25
2022-12-18T11:54:54.750Z,90.32
2022-12-18T11:55:54.720Z,90.74
2022-12-18T11:56:54.760Z,91.12
2022-12-18T11:57:54.705Z,91.33
2022-12-18T11:58:54.720Z,90.59
2022-12-18T11:59:54.666Z,89.12
2022-12-18T12:00:54.653Z,88.87
2022-12-18T12:01:54.733Z,88.77
2022-12-18T12:02:54.655Z,88.67
2022-12-18T12:03:54.649Z,88.52
2022-12-18T12:04:54.601Z,88.42
2022-12-18T12:05:54.596Z,88.42
2022-12-18T12:06:58.644Z,89.00
2022-12-18T12:07:55.565Z,88.79
2022-12-18T12:08:54.598Z,87.60
2022-12-18T12:09:54.533Z,87.92
2022-12-18T12:10:54.525Z,86.62
2022-12-18T12:11:54.518Z,86.10
2022-12-18T12:12:54.505Z,86.41
2022-12-18T12:13:54.486Z,87.77
2022-12-18T12:14:54.482Z,88.78
2022-12-18T12:15:54.491Z,89.68
2022-12-18T12:16:54.462Z,89.68
2022-12-18T12:17:54.424Z,87.34
2022-12-18T12:18:54.425Z,85.14
2022-12-18T12:19:54.412Z,86.05
2022-12-18T12:20:54.395Z,84.27
2022-12-18T12:21:54.393Z,86.05
2022-12-18T12:22:54.363Z,86.11
2022-12-18T12:23:54.353Z,84.96
2022-12-18T12:24:54.342Z,85.27
2022-12-18T12:25:54.332Z,85.90
2022-12-18T12:26:54.341Z,85.03
2022-12-18T12:27:54.312Z,84.09
2022-12-18T12:28:54.292Z,84.50
2022-12-18T12:29:54.273Z,83.98
2022-12-18T12:30:54.286Z,82.46
2022-12-18T12:31:54.323Z,84.30
2022-12-18T12:32:54.248Z,84.30
2022-12-18T12:33:54.220Z,83.15
2022-12-18T12:34:59.586Z,80.58
2022-12-18T12:35:55.193Z,82.25
2022-12-18T12:36:54.211Z,83.71
2022-12-18T12:37:54.170Z,84.44
2022-12-18T12:38:54.171Z,85.06
2022-12-18T12:39:54.152Z,84.86
2022-12-18T12:41:02.128Z,80.58
2022-12-18T12:41:55.138Z,81.24
2022-12-18T12:42:54.117Z,81.24
2022-12-18T12:43:54.510Z,80.93
2022-12-18T12:44:56.337Z,81.07
2022-12-18T12:45:54.134Z,82.32
2022-12-18T12:46:54.078Z,82.12
2022-12-18T12:47:54.038Z,82.05
2022-12-18T12:48:54.034Z,82.36
2022-12-18T12:49:54.017Z,83.09
2022-12-18T12:50:54.007Z,82.82
2022-12-18T12:51:54.009Z,83.38
2022-12-18T12:52:53.995Z,83.27